sensor_id;sensor_type;location;lat;lon;timestamp;P1;durP1;ratioP1;P2;durP2;ratioP2
36371;SDS011;22398;51.346;12.372;2023-04-07T00:01:34;19.52;;;9.35;;
36371;SDS011;22398;51.346;12.372;2023-04-07T00:06:39;19.88;;;9.15;;
36371;SDS011;22398;51.346;12.372;2023-04-07T00:11:44;18.52;;;8.75;;
36371;SDS011;22398;51.346;12.372;2023-04-07T00:16:49;15.23;;;8.10;;
36371;SDS011;22398;51.346;12.372;2023-04-07T00:21:53;15.57;;;9.02;;
36371;SDS011;22398;51.346;12.372;2023-04-07T00:26:57;13.90;;;8.70;;
36371;SDS011;22398;51.346;12.372;2023-04-07T00:32:01;14.93;;;8.52;;
36371;SDS011;22398;51.346;12.372;2023-04-07T00:37:06;22.05;;;10.48;;
36371;SDS011;22398;51.346;12.372;2023-04-07T00:42:10;15.53;;;8.23;;
36371;SDS011;22398;51.346;12.372;2023-04-07T00:47:14;13.57;;;8.00;;
36371;SDS011;22398;51.346;12.372;2023-04-07T00:52:19;15.65;;;8.35;;
36371;SDS011;22398;51.346;12.372;2023-04-07T00:57:27;17.13;;;7.13;;
36371;SDS011;22398;51.346;12.372;2023-04-07T01:02:32;12.85;;;7.00;;
36371;SDS011;22398;51.346;12.372;2023-04-07T01:07:46;16.95;;;7.68;;
36371;SDS011;22398;51.346;12.372;2023-04-07T01:12:56;12.65;;;6.97;;
36371;SDS011;22398;51.346;12.372;2023-04-07T01:18:05;11.30;;;7.05;;
36371;SDS011;22398;51.346;12.372;2023-04-07T01:23:16;13.40;;;7.43;;
36371;SDS011;22398;51.346;12.372;2023-04-07T01:28:40;14.32;;;6.80;;
36371;SDS011;22398;51.346;12.372;2023-04-07T01:33:53;12.15;;;7.40;;
36371;SDS011;22398;51.346;12.372;2023-04-07T01:38:59;11.85;;;6.88;;
36371;SDS011;22398;51.346;12.372;2023-04-07T01:44:02;14.80;;;6.97;;
36371;SDS011;22398;51.346;12.372;2023-04-07T01:54:13;15.18;;;6.63;;
36371;SDS011;22398;51.346;12.372;2023-04-07T01:59:17;15.18;;;6.78;;
36371;SDS011;22398;51.346;12.372;2023-04-07T02:04:24;9.30;;;6.35;;
36371;SDS011;22398;51.346;12.372;2023-04-07T02:09:33;14.20;;;6.93;;
36371;SDS011;22398;51.346;12.372;2023-04-07T02:14:42;14.00;;;6.72;;
36371;SDS011;22398;51.346;12.372;2023-04-07T02:19:50;17.83;;;7.85;;
36371;SDS011;22398;51.346;12.372;2023-04-07T02:24:55;16.52;;;7.57;;
36371;SDS011;22398;51.346;12.372;2023-04-07T02:30:00;13.65;;;7.15;;
36371;SDS011;22398;51.346;12.372;2023-04-07T02:35:05;18.25;;;7.63;;
36371;SDS011;22398;51.346;12.372;2023-04-07T02:40:09;14.82;;;7.28;;
36371;SDS011;22398;51.346;12.372;2023-04-07T02:45:13;13.15;;;7.30;;
36371;SDS011;22398;51.346;12.372;2023-04-07T02:50:19;11.02;;;6.97;;
36371;SDS011;22398;51.346;12.372;2023-04-07T02:55:23;15.82;;;6.97;;
36371;SDS011;22398;51.346;12.372;2023-04-07T03:00:26;17.08;;;7.72;;
36371;SDS011;22398;51.346;12.372;2023-04-07T03:05:40;13.18;;;6.90;;
36371;SDS011;22398;51.346;12.372;2023-04-07T03:10:45;13.93;;;7.75;;
36371;SDS011;22398;51.346;12.372;2023-04-07T03:15:53;11.63;;;6.32;;
36371;SDS011;22398;51.346;12.372;2023-04-07T03:21:00;12.20;;;7.32;;
36371;SDS011;22398;51.346;12.372;2023-04-07T03:26:05;11.95;;;7.50;;
36371;SDS011;22398;51.346;12.372;2023-04-07T03:31:11;15.73;;;8.02;;
36371;SDS011;22398;51.346;12.372;2023-04-07T03:36:16;13.32;;;7.68;;
36371;SDS011;22398;51.346;12.372;2023-04-07T03:41:21;16.35;;;8.75;;
36371;SDS011;22398;51.346;12.372;2023-04-07T03:46:24;17.25;;;8.82;;
36371;SDS011;22398;51.346;12.372;2023-04-07T03:51:30;21.30;;;8.43;;
36371;SDS011;22398;51.346;12.372;2023-04-07T03:56:35;14.30;;;8.18;;
36371;SDS011;22398;51.346;12.372;2023-04-07T04:01:39;13.88;;;8.02;;
36371;SDS011;22398;51.346;12.372;2023-04-07T04:06:49;14.30;;;7.75;;
36371;SDS011;22398;51.346;12.372;2023-04-07T04:12:22;14.43;;;7.55;;
36371;SDS011;22398;51.346;12.372;2023-04-07T04:17:37;13.95;;;7.95;;
36371;SDS011;22398;51.346;12.372;2023-04-07T04:22:43;19.13;;;8.00;;
36371;SDS011;22398;51.346;12.372;2023-04-07T04:27:47;16.20;;;8.23;;
36371;SDS011;22398;51.346;12.372;2023-04-07T04:32:55;13.80;;;7.68;;
36371;SDS011;22398;51.346;12.372;2023-04-07T04:38:09;13.63;;;7.32;;
36371;SDS011;22398;51.346;12.372;2023-04-07T04:43:19;13.38;;;7.47;;
36371;SDS011;22398;51.346;12.372;2023-04-07T04:48:24;15.95;;;8.32;;
36371;SDS011;22398;51.346;12.372;2023-04-07T04:53:29;14.95;;;8.25;;
36371;SDS011;22398;51.346;12.372;2023-04-07T04:58:36;16.70;;;8.05;;
36371;SDS011;22398;51.346;12.372;2023-04-07T05:03:41;14.23;;;8.75;;
36371;SDS011;22398;51.346;12.372;2023-04-07T05:08:56;15.82;;;7.97;;
36371;SDS011;22398;51.346;12.372;2023-04-07T05:14:05;19.92;;;9.88;;
36371;SDS011;22398;51.346;12.372;2023-04-07T05:19:13;15.82;;;8.43;;
36371;SDS011;22398;51.346;12.372;2023-04-07T05:24:18;22.42;;;9.45;;
36371;SDS011;22398;51.346;12.372;2023-04-07T05:29:27;22.23;;;12.15;;
36371;SDS011;22398;51.346;12.372;2023-04-07T05:34:31;20.65;;;10.05;;
36371;SDS011;22398;51.346;12.372;2023-04-07T05:39:38;19.35;;;9.00;;
36371;SDS011;22398;51.346;12.372;2023-04-07T05:44:45;22.98;;;10.10;;
36371;SDS011;22398;51.346;12.372;2023-04-07T05:49:48;17.08;;;9.60;;
36371;SDS011;22398;51.346;12.372;2023-04-07T05:54:54;23.20;;;10.23;;
36371;SDS011;22398;51.346;12.372;2023-04-07T06:00:01;18.15;;;10.20;;
36371;SDS011;22398;51.346;12.372;2023-04-07T06:05:14;17.42;;;9.70;;
36371;SDS011;22398;51.346;12.372;2023-04-07T06:10:20;14.65;;;8.30;;
36371;SDS011;22398;51.346;12.372;2023-04-07T06:15:24;18.58;;;8.70;;
36371;SDS011;22398;51.346;12.372;2023-04-07T06:20:27;19.95;;;8.70;;
36371;SDS011;22398;51.346;12.372;2023-04-07T06:25:33;14.18;;;7.88;;
36371;SDS011;22398;51.346;12.372;2023-04-07T06:30:37;16.90;;;8.68;;
36371;SDS011;22398;51.346;12.372;2023-04-07T06:35:44;18.98;;;8.25;;
36371;SDS011;22398;51.346;12.372;2023-04-07T06:40:49;20.08;;;8.48;;
36371;SDS011;22398;51.346;12.372;2023-04-07T06:45:53;16.92;;;8.93;;
36371;SDS011;22398;51.346;12.372;2023-04-07T06:50:56;14.07;;;8.65;;
36371;SDS011;22398;51.346;12.372;2023-04-07T06:56:05;14.00;;;7.72;;
36371;SDS011;22398;51.346;12.372;2023-04-07T07:01:10;14.38;;;7.38;;
36371;SDS011;22398;51.346;12.372;2023-04-07T07:06:14;18.88;;;7.78;;
36371;SDS011;22398;51.346;12.372;2023-04-07T07:11:18;12.82;;;7.20;;
36371;SDS011;22398;51.346;12.372;2023-04-07T07:16:22;22.23;;;8.40;;
36371;SDS011;22398;51.346;12.372;2023-04-07T07:21:25;15.50;;;7.50;;
36371;SDS011;22398;51.346;12.372;2023-04-07T07:26:30;12.50;;;6.93;;
36371;SDS011;22398;51.346;12.372;2023-04-07T07:31:34;12.88;;;6.80;;
36371;SDS011;22398;51.346;12.372;2023-04-07T07:36:37;12.73;;;7.85;;
36371;SDS011;22398;51.346;12.372;2023-04-07T07:41:42;13.02;;;7.40;;
36371;SDS011;22398;51.346;12.372;2023-04-07T07:46:47;16.35;;;8.70;;
36371;SDS011;22398;51.346;12.372;2023-04-07T07:51:50;11.88;;;7.85;;
36371;SDS011;22398;51.346;12.372;2023-04-07T07:56:55;12.90;;;7.57;;
36371;SDS011;22398;51.346;12.372;2023-04-07T08:01:58;10.57;;;7.17;;
36371;SDS011;22398;51.346;12.372;2023-04-07T08:07:02;12.32;;;7.28;;
36371;SDS011;22398;51.346;12.372;2023-04-07T08:12:07;10.90;;;6.80;;
36371;SDS011;22398;51.346;12.372;2023-04-07T08:17:10;9.30;;;5.37;;
36371;SDS011;22398;51.346;12.372;2023-04-07T08:22:14;11.60;;;6.53;;
36371;SDS011;22398;51.346;12.372;2023-04-07T08:27:21;12.20;;;6.15;;
36371;SDS011;22398;51.346;12.372;2023-04-07T08:32:25;12.02;;;6.43;;
36371;SDS011;22398;51.346;12.372;2023-04-07T08:37:37;15.93;;;6.68;;
36371;SDS011;22398;51.346;12.372;2023-04-07T08:42:45;19.00;;;6.90;;
36371;SDS011;22398;51.346;12.372;2023-04-07T08:47:50;12.88;;;6.88;;
36371;SDS011;22398;51.346;12.372;2023-04-07T08:52:59;17.55;;;7.63;;
36371;SDS011;22398;51.346;12.372;2023-04-07T08:58:09;13.30;;;7.85;;
36371;SDS011;22398;51.346;12.372;2023-04-07T09:03:14;13.50;;;7.93;;
36371;SDS011;22398;51.346;12.372;2023-04-07T09:08:18;14.90;;;8.03;;
36371;SDS011;22398;51.346;12.372;2023-04-07T09:13:24;11.85;;;7.15;;
36371;SDS011;22398;51.346;12.372;2023-04-07T09:23:32;15.15;;;6.85;;
36371;SDS011;22398;51.346;12.372;2023-04-07T09:28:38;12.93;;;5.93;;
36371;SDS011;22398;51.346;12.372;2023-04-07T09:33:44;16.48;;;6.40;;
36371;SDS011;22398;51.346;12.372;2023-04-07T09:38:48;12.38;;;6.00;;
36371;SDS011;22398;51.346;12.372;2023-04-07T09:43:55;14.75;;;6.53;;
36371;SDS011;22398;51.346;12.372;2023-04-07T09:49:00;10.30;;;6.68;;
36371;SDS011;22398;51.346;12.372;2023-04-07T09:54:06;11.43;;;6.72;;
36371;SDS011;22398;51.346;12.372;2023-04-07T09:59:12;14.87;;;7.10;;
36371;SDS011;22398;51.346;12.372;2023-04-07T10:04:18;11.00;;;6.90;;
36371;SDS011;22398;51.346;12.372;2023-04-07T10:09:24;14.63;;;7.63;;
36371;SDS011;22398;51.346;12.372;2023-04-07T10:14:31;11.57;;;6.85;;
36371;SDS011;22398;51.346;12.372;2023-04-07T10:19:34;15.90;;;6.60;;
36371;SDS011;22398;51.346;12.372;2023-04-07T10:24:43;8.35;;;5.40;;
36371;SDS011;22398;51.346;12.372;2023-04-07T10:29:53;11.43;;;6.65;;
36371;SDS011;22398;51.346;12.372;2023-04-07T10:34:59;14.10;;;6.93;;
36371;SDS011;22398;51.346;12.372;2023-04-07T10:56:19;14.30;;;6.90;;
36371;SDS011;22398;51.346;12.372;2023-04-07T11:01:25;11.37;;;6.20;;
36371;SDS011;22398;51.346;12.372;2023-04-07T11:06:29;9.23;;;6.32;;
36371;SDS011;22398;51.346;12.372;2023-04-07T11:11:36;12.07;;;6.43;;
36371;SDS011;22398;51.346;12.372;2023-04-07T11:16:43;10.13;;;6.03;;
36371;SDS011;22398;51.346;12.372;2023-04-07T11:21:47;10.73;;;6.73;;
36371;SDS011;22398;51.346;12.372;2023-04-07T11:26:50;11.98;;;6.22;;
36371;SDS011;22398;51.346;12.372;2023-04-07T11:31:55;13.23;;;6.47;;
36371;SDS011;22398;51.346;12.372;2023-04-07T11:42:31;12.55;;;6.10;;
36371;SDS011;22398;51.346;12.372;2023-04-07T11:47:37;12.57;;;6.90;;
36371;SDS011;22398;51.346;12.372;2023-04-07T11:52:42;12.07;;;6.97;;
36371;SDS011;22398;51.346;12.372;2023-04-07T11:57:47;11.90;;;6.32;;
36371;SDS011;22398;51.346;12.372;2023-04-07T12:02:53;11.98;;;6.10;;
36371;SDS011;22398;51.346;12.372;2023-04-07T12:07:57;11.15;;;5.65;;
36371;SDS011;22398;51.346;12.372;2023-04-07T12:13:01;10.23;;;5.82;;
36371;SDS011;22398;51.346;12.372;2023-04-07T12:18:06;9.25;;;5.25;;
36371;SDS011;22398;51.346;12.372;2023-04-07T12:23:10;10.20;;;5.93;;
36371;SDS011;22398;51.346;12.372;2023-04-07T12:28:14;14.20;;;6.18;;
36371;SDS011;22398;51.346;12.372;2023-04-07T12:33:18;8.60;;;5.75;;
36371;SDS011;22398;51.346;12.372;2023-04-07T12:38:22;13.07;;;5.95;;
36371;SDS011;22398;51.346;12.372;2023-04-07T12:43:26;12.82;;;5.38;;
36371;SDS011;22398;51.346;12.372;2023-04-07T12:48:31;10.15;;;6.70;;
36371;SDS011;22398;51.346;12.372;2023-04-07T12:53:35;10.27;;;5.75;;
36371;SDS011;22398;51.346;12.372;2023-04-07T12:58:38;8.77;;;5.90;;
36371;SDS011;22398;51.346;12.372;2023-04-07T13:03:43;11.02;;;5.95;;
36371;SDS011;22398;51.346;12.372;2023-04-07T13:08:46;11.38;;;6.15;;
36371;SDS011;22398;51.346;12.372;2023-04-07T13:13:50;11.00;;;6.38;;
36371;SDS011;22398;51.346;12.372;2023-04-07T13:18:58;11.07;;;6.80;;
36371;SDS011;22398;51.346;12.372;2023-04-07T13:24:02;10.57;;;6.75;;
36371;SDS011;22398;51.346;12.372;2023-04-07T13:29:06;12.93;;;6.10;;
36371;SDS011;22398;51.346;12.372;2023-04-07T13:34:10;10.60;;;6.10;;
36371;SDS011;22398;51.346;12.372;2023-04-07T13:39:14;10.48;;;5.53;;
36371;SDS011;22398;51.346;12.372;2023-04-07T13:44:18;11.55;;;6.22;;
36371;SDS011;22398;51.346;12.372;2023-04-07T13:49:23;13.07;;;6.45;;
36371;SDS011;22398;51.346;12.372;2023-04-07T13:54:26;9.80;;;5.60;;
36371;SDS011;22398;51.346;12.372;2023-04-07T13:59:30;12.93;;;5.78;;
36371;SDS011;22398;51.346;12.372;2023-04-07T14:04:35;10.77;;;5.82;;
36371;SDS011;22398;51.346;12.372;2023-04-07T14:09:39;10.60;;;5.60;;
36371;SDS011;22398;51.346;12.372;2023-04-07T14:14:43;9.95;;;5.22;;
36371;SDS011;22398;51.346;12.372;2023-04-07T14:19:48;8.88;;;5.90;;
36371;SDS011;22398;51.346;12.372;2023-04-07T14:24:52;13.35;;;6.57;;
36371;SDS011;22398;51.346;12.372;2023-04-07T14:29:55;9.18;;;5.30;;
36371;SDS011;22398;51.346;12.372;2023-04-07T14:35:01;8.70;;;5.18;;
36371;SDS011;22398;51.346;12.372;2023-04-07T14:40:05;10.55;;;5.20;;
36371;SDS011;22398;51.346;12.372;2023-04-07T14:45:10;7.13;;;5.28;;
36371;SDS011;22398;51.346;12.372;2023-04-07T14:50:16;7.70;;;4.93;;
36371;SDS011;22398;51.346;12.372;2023-04-07T14:55:20;9.75;;;5.40;;
36371;SDS011;22398;51.346;12.372;2023-04-07T15:00:24;11.88;;;5.00;;
36371;SDS011;22398;51.346;12.372;2023-04-07T15:05:30;13.43;;;5.88;;
36371;SDS011;22398;51.346;12.372;2023-04-07T15:10:36;7.55;;;5.03;;
36371;SDS011;22398;51.346;12.372;2023-04-07T15:20:45;8.63;;;4.57;;
36371;SDS011;22398;51.346;12.372;2023-04-07T15:25:48;7.95;;;4.63;;
36371;SDS011;22398;51.346;12.372;2023-04-07T15:30:56;13.98;;;4.95;;
36371;SDS011;22398;51.346;12.372;2023-04-07T15:36:02;11.05;;;4.32;;
36371;SDS011;22398;51.346;12.372;2023-04-07T15:41:06;7.90;;;3.70;;
36371;SDS011;22398;51.346;12.372;2023-04-07T15:46:09;8.23;;;4.63;;
36371;SDS011;22398;51.346;12.372;2023-04-07T15:51:14;8.32;;;3.75;;
36371;SDS011;22398;51.346;12.372;2023-04-07T15:56:18;7.10;;;3.97;;
36371;SDS011;22398;51.346;12.372;2023-04-07T16:06:28;7.65;;;3.95;;
36371;SDS011;22398;51.346;12.372;2023-04-07T16:11:32;8.85;;;3.90;;
36371;SDS011;22398;51.346;12.372;2023-04-07T16:16:36;8.43;;;4.57;;
36371;SDS011;22398;51.346;12.372;2023-04-07T16:21:43;8.23;;;4.05;;
36371;SDS011;22398;51.346;12.372;2023-04-07T16:26:47;10.38;;;4.07;;
36371;SDS011;22398;51.346;12.372;2023-04-07T16:31:52;7.63;;;4.85;;
36371;SDS011;22398;51.346;12.372;2023-04-07T16:36:57;9.57;;;5.00;;
36371;SDS011;22398;51.346;12.372;2023-04-07T16:42:00;10.63;;;4.18;;
36371;SDS011;22398;51.346;12.372;2023-04-07T16:47:05;10.43;;;4.43;;
36371;SDS011;22398;51.346;12.372;2023-04-07T16:52:10;7.90;;;4.22;;
36371;SDS011;22398;51.346;12.372;2023-04-07T16:57:13;8.65;;;4.65;;
36371;SDS011;22398;51.346;12.372;2023-04-07T17:02:17;9.32;;;5.40;;
36371;SDS011;22398;51.346;12.372;2023-04-07T17:07:22;9.60;;;4.35;;
36371;SDS011;22398;51.346;12.372;2023-04-07T17:12:26;10.10;;;5.30;;
36371;SDS011;22398;51.346;12.372;2023-04-07T17:17:29;9.65;;;4.13;;
36371;SDS011;22398;51.346;12.372;2023-04-07T17:22:34;7.70;;;4.20;;
36371;SDS011;22398;51.346;12.372;2023-04-07T17:27:38;7.80;;;3.90;;
36371;SDS011;22398;51.346;12.372;2023-04-07T17:32:41;11.15;;;4.32;;
36371;SDS011;22398;51.346;12.372;2023-04-07T17:37:46;13.65;;;3.95;;
36371;SDS011;22398;51.346;12.372;2023-04-07T17:42:49;7.17;;;3.83;;
36371;SDS011;22398;51.346;12.372;2023-04-07T17:47:54;6.53;;;3.75;;
36371;SDS011;22398;51.346;12.372;2023-04-07T17:52:59;12.07;;;5.47;;
36371;SDS011;22398;51.346;12.372;2023-04-07T17:58:02;10.93;;;4.95;;
36371;SDS011;22398;51.346;12.372;2023-04-07T18:03:06;10.48;;;3.67;;
36371;SDS011;22398;51.346;12.372;2023-04-07T18:08:12;9.45;;;3.75;;
36371;SDS011;22398;51.346;12.372;2023-04-07T18:13:16;9.38;;;3.75;;
36371;SDS011;22398;51.346;12.372;2023-04-07T18:18:19;8.95;;;3.38;;
36371;SDS011;22398;51.346;12.372;2023-04-07T18:23:24;8.05;;;3.92;;
36371;SDS011;22398;51.346;12.372;2023-04-07T18:28:27;8.63;;;3.37;;
36371;SDS011;22398;51.346;12.372;2023-04-07T18:33:31;5.25;;;2.58;;
36371;SDS011;22398;51.346;12.372;2023-04-07T18:38:36;11.15;;;4.00;;
36371;SDS011;22398;51.346;12.372;2023-04-07T18:43:40;11.20;;;3.97;;
36371;SDS011;22398;51.346;12.372;2023-04-07T18:48:43;7.45;;;3.33;;
36371;SDS011;22398;51.346;12.372;2023-04-07T18:53:48;8.07;;;3.45;;
36371;SDS011;22398;51.346;12.372;2023-04-07T18:58:52;6.93;;;3.63;;
36371;SDS011;22398;51.346;12.372;2023-04-07T19:03:55;7.85;;;3.60;;
36371;SDS011;22398;51.346;12.372;2023-04-07T19:09:01;12.73;;;4.55;;
36371;SDS011;22398;51.346;12.372;2023-04-07T19:19:08;9.52;;;3.95;;
36371;SDS011;22398;51.346;12.372;2023-04-07T19:24:13;9.80;;;5.35;;
36371;SDS011;22398;51.346;12.372;2023-04-07T19:29:17;9.37;;;5.20;;
36371;SDS011;22398;51.346;12.372;2023-04-07T19:34:20;11.25;;;6.70;;
36371;SDS011;22398;51.346;12.372;2023-04-07T19:39:25;14.77;;;8.02;;
36371;SDS011;22398;51.346;12.372;2023-04-07T19:44:29;13.38;;;7.15;;
36371;SDS011;22398;51.346;12.372;2023-04-07T19:49:33;14.88;;;7.80;;
36371;SDS011;22398;51.346;12.372;2023-04-07T19:54:38;14.30;;;8.68;;
36371;SDS011;22398;51.346;12.372;2023-04-07T19:59:41;12.93;;;7.93;;
36371;SDS011;22398;51.346;12.372;2023-04-07T20:04:44;13.73;;;7.85;;
36371;SDS011;22398;51.346;12.372;2023-04-07T20:09:49;13.68;;;7.88;;
36371;SDS011;22398;51.346;12.372;2023-04-07T20:14:54;14.75;;;8.27;;
36371;SDS011;22398;51.346;12.372;2023-04-07T20:19:58;12.25;;;7.60;;
36371;SDS011;22398;51.346;12.372;2023-04-07T20:25:03;13.88;;;7.70;;
36371;SDS011;22398;51.346;12.372;2023-04-07T20:30:07;12.27;;;7.78;;
36371;SDS011;22398;51.346;12.372;2023-04-07T20:35:11;12.18;;;6.60;;
36371;SDS011;22398;51.346;12.372;2023-04-07T20:40:17;11.38;;;5.18;;
36371;SDS011;22398;51.346;12.372;2023-04-07T20:45:20;7.50;;;4.22;;
36371;SDS011;22398;51.346;12.372;2023-04-07T20:50:23;8.43;;;4.47;;
36371;SDS011;22398;51.346;12.372;2023-04-07T20:55:29;7.85;;;4.65;;
36371;SDS011;22398;51.346;12.372;2023-04-07T21:00:32;9.27;;;5.32;;
36371;SDS011;22398;51.346;12.372;2023-04-07T21:05:35;12.75;;;5.18;;
36371;SDS011;22398;51.346;12.372;2023-04-07T21:10:41;10.45;;;5.03;;
36371;SDS011;22398;51.346;12.372;2023-04-07T21:15:45;10.33;;;6.07;;
36371;SDS011;22398;51.346;12.372;2023-04-07T21:20:48;16.02;;;6.30;;
36371;SDS011;22398;51.346;12.372;2023-04-07T21:25:53;11.90;;;5.40;;
36371;SDS011;22398;51.346;12.372;2023-04-07T21:31:01;9.73;;;5.40;;
36371;SDS011;22398;51.346;12.372;2023-04-07T21:36:05;13.18;;;5.15;;
36371;SDS011;22398;51.346;12.372;2023-04-07T21:41:10;9.25;;;5.10;;
36371;SDS011;22398;51.346;12.372;2023-04-07T21:46:14;7.15;;;4.85;;
36371;SDS011;22398;51.346;12.372;2023-04-07T21:51:18;9.82;;;4.95;;
36371;SDS011;22398;51.346;12.372;2023-04-07T21:56:23;11.45;;;5.60;;
36371;SDS011;22398;51.346;12.372;2023-04-07T22:01:29;9.07;;;4.70;;
36371;SDS011;22398;51.346;12.372;2023-04-07T22:06:32;12.00;;;5.47;;
36371;SDS011;22398;51.346;12.372;2023-04-07T22:11:37;7.88;;;4.82;;
36371;SDS011;22398;51.346;12.372;2023-04-07T22:16:41;7.82;;;4.03;;
36371;SDS011;22398;51.346;12.372;2023-04-07T22:21:44;6.85;;;3.80;;
36371;SDS011;22398;51.346;12.372;2023-04-07T22:26:49;10.10;;;4.72;;
36371;SDS011;22398;51.346;12.372;2023-04-07T22:31:54;6.43;;;3.75;;
36371;SDS011;22398;51.346;12.372;2023-04-07T22:36:58;5.15;;;3.22;;
36371;SDS011;22398;51.346;12.372;2023-04-07T22:42:02;9.13;;;4.22;;
36371;SDS011;22398;51.346;12.372;2023-04-07T22:47:06;6.22;;;3.35;;
36371;SDS011;22398;51.346;12.372;2023-04-07T22:52:11;7.97;;;4.00;;
36371;SDS011;22398;51.346;12.372;2023-04-07T22:57:15;6.20;;;3.35;;
36371;SDS011;22398;51.346;12.372;2023-04-07T23:02:19;8.53;;;3.93;;
36371;SDS011;22398;51.346;12.372;2023-04-07T23:07:23;5.38;;;3.25;;
36371;SDS011;22398;51.346;12.372;2023-04-07T23:12:28;8.98;;;4.60;;
36371;SDS011;22398;51.346;12.372;2023-04-07T23:17:32;7.60;;;4.55;;
36371;SDS011;22398;51.346;12.372;2023-04-07T23:22:36;9.50;;;4.20;;
36371;SDS011;22398;51.346;12.372;2023-04-07T23:27:41;8.25;;;4.22;;
36371;SDS011;22398;51.346;12.372;2023-04-07T23:32:44;6.22;;;3.38;;
36371;SDS011;22398;51.346;12.372;2023-04-07T23:37:48;8.18;;;4.05;;
36371;SDS011;22398;51.346;12.372;2023-04-07T23:42:53;10.57;;;5.15;;
36371;SDS011;22398;51.346;12.372;2023-04-07T23:47:56;9.27;;;4.60;;
36371;SDS011;22398;51.346;12.372;2023-04-07T23:53:00;8.52;;;5.05;;
36371;SDS011;22398;51.346;12.372;2023-04-07T23:58:06;9.07;;;4.10;;
